Time;durP1;ratioP1;P1;durP2;ratioP2;P2;SDS_P1;SDS_P2;PMS_P1;PMS_P2;Temp;Humidity;BMP_temperature;BMP_pressure;BME280_temperature;BME280_humidity;BME280_pressure;Samples;Min_cycle;Max_cycle;Signal;HPM_P1;HPM_P2
2023/02/02 00:02:06;;;;;;;2.50;0.50;;;6.70;99.90;;;;;;5098350;28;20414;-61
2023/02/02 00:04:35;;;;;;;0.70;0.40;;;6.70;99.90;;;;;;5095371;28;20426;-60
2023/02/02 00:07:04;;;;;;;1.75;0.50;;;6.80;99.90;;;;;;5093952;28;20440;-61
2023/02/02 00:09:32;;;;;;;1.23;0.40;;;6.80;99.90;;;;;;5096149;28;20513;-61
2023/02/02 00:12:01;;;;;;;1.38;0.40;;;6.70;99.90;;;;;;5097043;28;20428;-61
2023/02/02 00:14:28;;;;;;;1.40;0.40;;;6.70;99.90;;;;;;5098567;28;20829;-62
2023/02/02 00:16:55;;;;;;;2.03;0.50;;;6.80;99.90;;;;;;5101019;28;20426;-62
2023/02/02 00:19:26;;;;;;;1.85;0.50;;;6.90;99.90;;;;;;5097523;28;20433;-61
2023/02/02 00:21:54;;;;;;;1.55;0.40;;;6.80;99.90;;;;;;5098364;28;20795;-61
2023/02/02 00:24:21;;;;;;;1.00;0.30;;;6.80;99.90;;;;;;5097859;28;20867;-61
2023/02/02 00:26:51;;;;;;;1.20;0.40;;;6.90;99.90;;;;;;5100058;28;20453;-60
2023/02/02 00:29:20;;;;;;;0.70;0.38;;;6.70;99.90;;;;;;5098349;28;20429;-61
2023/02/02 00:31:47;;;;;;;2.85;0.50;;;6.80;99.90;;;;;;5096636;28;20418;-60
2023/02/02 00:34:15;;;;;;;1.60;0.40;;;6.70;99.90;;;;;;5098884;28;20463;-61
2023/02/02 00:36:45;;;;;;;1.20;0.40;;;6.90;99.90;;;;;;5096469;28;20457;-61
2023/02/02 00:39:16;;;;;;;0.70;0.40;;;6.80;99.90;;;;;;5096717;28;20437;-60
2023/02/02 00:41:43;;;;;;;2.30;0.40;;;6.70;99.90;;;;;;5096790;28;20426;-60
2023/02/02 00:46:55;;;;;;;1.45;0.40;;;6.80;99.90;;;;;;5097104;28;20409;-60
2023/02/02 00:49:22;;;;;;;1.60;0.50;;;6.90;99.90;;;;;;5097108;28;20428;-61
2023/02/02 00:51:50;;;;;;;1.60;0.40;;;6.90;99.90;;;;;;5096834;28;20425;-60
2023/02/02 00:54:17;;;;;;;1.35;0.40;;;6.90;99.90;;;;;;5094703;28;20470;-60
2023/02/02 00:56:45;;;;;;;2.05;0.50;;;7.00;99.90;;;;;;5096783;28;20433;-60
2023/02/02 00:59:12;;;;;;;1.80;0.40;;;7.00;99.90;;;;;;5097635;28;20920;-60
2023/02/02 01:01:39;;;;;;;1.38;0.40;;;7.00;99.90;;;;;;5098391;28;20437;-62
2023/02/02 01:04:06;;;;;;;1.58;0.50;;;7.00;99.90;;;;;;5097509;28;20745;-61
2023/02/02 01:06:33;;;;;;;1.50;0.32;;;7.00;99.90;;;;;;5096644;28;20717;-61
2023/02/02 01:09:02;;;;;;;1.93;0.40;;;7.00;99.90;;;;;;5097314;28;20422;-62
2023/02/02 01:11:29;;;;;;;1.30;0.30;;;7.00;99.90;;;;;;5099574;28;20434;-61
2023/02/02 01:13:57;;;;;;;1.67;0.40;;;7.10;99.90;;;;;;5097037;28;20430;-61
2023/02/02 01:16:24;;;;;;;3.35;0.40;;;7.10;99.90;;;;;;5096847;28;20861;-60
2023/02/02 01:18:51;;;;;;;0.93;0.40;;;7.10;99.90;;;;;;5096940;28;20837;-61
2023/02/02 01:21:19;;;;;;;1.00;0.30;;;7.20;99.90;;;;;;5096458;28;20440;-61
2023/02/02 01:23:46;;;;;;;3.30;0.40;;;7.20;99.90;;;;;;5096653;28;20429;-61
2023/02/02 01:26:15;;;;;;;2.22;0.90;;;7.20;99.90;;;;;;5099328;28;20434;-60
2023/02/02 01:28:43;;;;;;;0.90;0.40;;;7.10;99.90;;;;;;5096758;28;20437;-61
2023/02/02 01:31:13;;;;;;;2.60;0.40;;;7.20;99.90;;;;;;5096737;28;20418;-60
2023/02/02 01:33:41;;;;;;;1.20;0.40;;;7.10;99.90;;;;;;5096628;28;20851;-59
2023/02/02 01:36:11;;;;;;;2.05;0.40;;;7.00;99.90;;;;;;5096216;28;20873;-60
2023/02/02 01:38:39;;;;;;;1.00;0.40;;;7.00;99.90;;;;;;5096560;28;20418;-60
2023/02/02 01:41:06;;;;;;;1.30;0.30;;;7.00;99.90;;;;;;5095985;28;20480;-61
2023/02/02 01:43:53;;;;;;;2.20;0.40;;;6.90;99.90;;;;;;5096225;28;20438;-61
2023/02/02 01:46:22;;;;;;;1.20;0.30;;;6.90;99.90;;;;;;5096570;28;20421;-60
2023/02/02 01:48:56;;;;;;;1.20;0.30;;;6.90;99.90;;;;;;5095931;28;20432;-60
2023/02/02 01:51:27;;;;;;;0.90;0.40;;;7.00;99.90;;;;;;5096065;28;20442;-60
2023/02/02 01:53:57;;;;;;;2.10;0.40;;;6.90;99.90;;;;;;5099195;28;20442;-60
2023/02/02 01:56:30;;;;;;;1.27;0.30;;;6.80;99.90;;;;;;5096358;28;20422;-60
2023/02/02 01:59:00;;;;;;;1.10;0.40;;;6.80;99.90;;;;;;5095969;28;20445;-60
2023/02/02 02:01:27;;;;;;;1.10;0.40;;;6.70;99.90;;;;;;5101628;28;20454;-60
2023/02/02 02:03:56;;;;;;;2.10;0.30;;;6.80;99.90;;;;;;5116272;28;20423;-60
2023/02/02 02:06:24;;;;;;;1.20;0.30;;;6.90;99.90;;;;;;5116292;28;20735;-61
2023/02/02 02:08:55;;;;;;;0.80;0.40;;;6.90;99.90;;;;;;5116673;28;20828;-61
2023/02/02 02:11:24;;;;;;;0.73;0.30;;;6.80;99.90;;;;;;5116063;28;20423;-60
2023/02/02 02:16:49;;;;;;;0.90;0.30;;;6.80;99.90;;;;;;5115871;28;20489;-61
2023/02/02 02:29:19;;;;;;;0.90;0.30;;;6.70;99.90;;;;;;5115379;28;20403;-60
2023/02/02 02:32:11;;;;;;;1.30;0.40;;;6.70;99.90;;;;;;5114766;28;20723;-60
2023/02/02 02:34:48;;;;;;;1.90;0.40;;;6.70;99.90;;;;;;5116003;28;20731;-60
2023/02/02 02:37:23;;;;;;;2.15;0.30;;;6.70;99.90;;;;;;5115918;28;20432;-60
2023/02/02 02:39:55;;;;;;;1.00;0.30;;;6.70;99.90;;;;;;5116030;28;20708;-60
2023/02/02 02:42:26;;;;;;;0.90;0.30;;;6.60;99.90;;;;;;5115463;28;20412;-61
2023/02/02 02:44:56;;;;;;;0.77;0.30;;;6.70;99.90;;;;;;5115781;28;20424;-60
2023/02/02 02:47:25;;;;;;;0.60;0.22;;;6.90;99.90;;;;;;5115758;28;20426;-60
2023/02/02 02:49:52;;;;;;;1.50;0.30;;;7.00;99.90;;;;;;5116058;28;20462;-60
2023/02/02 02:52:19;;;;;;;0.90;0.30;;;7.00;99.90;;;;;;5114504;28;20427;-60
2023/02/02 02:54:49;;;;;;;1.30;0.30;;;7.00;99.90;;;;;;5115465;28;20428;-59
2023/02/02 02:57:27;;;;;;;0.60;0.30;;;7.00;99.90;;;;;;5115046;28;20839;-60
2023/02/02 03:00:05;;;;;;;1.60;0.30;;;6.90;99.90;;;;;;5115408;28;20423;-60
2023/02/02 03:02:47;;;;;;;0.90;0.22;;;6.90;99.90;;;;;;5115291;28;20423;-60
2023/02/02 03:05:26;;;;;;;1.05;0.30;;;6.90;99.90;;;;;;5115411;28;20446;-60
2023/02/02 03:08:02;;;;;;;0.68;0.30;;;6.90;99.90;;;;;;5114857;28;20439;-62
2023/02/02 03:10:31;;;;;;;0.82;0.30;;;6.90;99.90;;;;;;5115096;28;20416;-60
2023/02/02 03:12:58;;;;;;;1.53;0.40;;;6.90;99.90;;;;;;5114324;28;20411;-60
2023/02/02 03:15:25;;;;;;;1.00;0.30;;;7.00;99.90;;;;;;5115109;28;20419;-61
2023/02/02 03:17:54;;;;;;;1.13;0.30;;;6.90;99.90;;;;;;5112951;28;20439;-61
2023/02/02 03:20:22;;;;;;;0.80;0.30;;;7.10;99.90;;;;;;5114357;28;20495;-61
2023/02/02 03:22:49;;;;;;;0.50;0.20;;;7.10;99.90;;;;;;5112371;28;20850;-61
2023/02/02 03:25:16;;;;;;;0.70;0.30;;;7.10;99.90;;;;;;5111909;28;20420;-60
2023/02/02 03:27:43;;;;;;;2.03;0.30;;;7.00;99.90;;;;;;5111696;28;20720;-61
2023/02/02 03:30:13;;;;;;;1.70;0.30;;;7.10;99.90;;;;;;5114208;28;20418;-61
2023/02/02 03:32:40;;;;;;;0.90;0.50;;;7.10;99.90;;;;;;5116345;28;20477;-61
2023/02/02 03:35:10;;;;;;;1.55;0.30;;;7.20;99.90;;;;;;5115330;28;20416;-61
2023/02/02 03:37:37;;;;;;;1.60;0.30;;;7.20;99.90;;;;;;5115891;28;20434;-61
2023/02/02 03:40:05;;;;;;;0.50;0.20;;;7.20;99.90;;;;;;5115630;28;20428;-61
2023/02/02 03:42:32;;;;;;;0.50;0.20;;;7.00;99.90;;;;;;5116292;28;20416;-61
2023/02/02 03:44:59;;;;;;;0.80;0.20;;;6.90;99.90;;;;;;5119164;28;20419;-60
2023/02/02 03:47:29;;;;;;;1.10;0.20;;;6.90;99.90;;;;;;5117670;28;20416;-60
2023/02/02 03:49:56;;;;;;;0.70;0.30;;;6.90;99.90;;;;;;5118118;28;20501;-61
2023/02/02 03:52:26;;;;;;;1.50;0.20;;;6.80;99.90;;;;;;5118444;28;20732;-61
2023/02/02 03:54:53;;;;;;;1.02;0.20;;;7.00;99.90;;;;;;5118362;28;20724;-60
2023/02/02 03:57:20;;;;;;;0.50;0.20;;;6.90;99.90;;;;;;5118490;28;20735;-60
2023/02/02 03:59:47;;;;;;;1.10;0.30;;;7.10;99.90;;;;;;5118702;28;20432;-61
2023/02/02 04:02:14;;;;;;;1.50;0.30;;;7.10;99.90;;;;;;5117772;28;20420;-61
2023/02/02 04:04:41;;;;;;;0.57;0.20;;;7.10;99.90;;;;;;5118637;28;20420;-60
2023/02/02 04:07:08;;;;;;;1.65;0.20;;;7.10;99.90;;;;;;5117793;28;20416;-59
2023/02/02 04:09:37;;;;;;;0.52;0.20;;;7.00;99.90;;;;;;5119039;28;20712;-60
2023/02/02 04:12:04;;;;;;;0.98;0.20;;;7.20;99.90;;;;;;5118005;28;20403;-59
2023/02/02 04:14:31;;;;;;;0.50;0.20;;;7.20;99.90;;;;;;5118322;28;20416;-59
2023/02/02 04:16:58;;;;;;;0.50;0.20;;;7.10;99.90;;;;;;5117727;28;20783;-59
2023/02/02 04:19:25;;;;;;;0.60;0.20;;;7.10;99.90;;;;;;5117753;28;20431;-59
2023/02/02 04:21:53;;;;;;;1.20;0.30;;;7.10;99.90;;;;;;5118428;28;20416;-59
2023/02/02 04:24:20;;;;;;;0.60;0.20;;;6.90;99.90;;;;;;5118487;28;20843;-59
2023/02/02 04:26:49;;;;;;;0.70;0.20;;;6.80;99.90;;;;;;5118227;28;20423;-60
2023/02/02 04:29:16;;;;;;;1.20;0.30;;;6.80;99.90;;;;;;5118096;28;20420;-59
2023/02/02 04:31:43;;;;;;;0.60;0.20;;;6.90;99.90;;;;;;5118477;28;20413;-59
2023/02/02 04:34:10;;;;;;;0.50;0.30;;;7.00;99.90;;;;;;5117822;28;20428;-59
2023/02/02 04:36:38;;;;;;;1.63;0.30;;;7.10;99.90;;;;;;5117525;28;20743;-60
2023/02/02 04:39:05;;;;;;;1.10;0.28;;;7.00;99.90;;;;;;5117672;28;20439;-60
2023/02/02 04:41:32;;;;;;;0.70;0.30;;;7.00;99.90;;;;;;5116578;28;20421;-60
2023/02/02 04:44:01;;;;;;;0.70;0.30;;;6.80;99.90;;;;;;5117508;28;20431;-60
2023/02/02 04:46:28;;;;;;;1.50;0.30;;;6.80;99.90;;;;;;5117743;28;20424;-60
2023/02/02 04:48:55;;;;;;;1.10;0.30;;;6.90;99.90;;;;;;5116538;28;20424;-60
2023/02/02 04:51:22;;;;;;;0.98;0.30;;;6.90;99.90;;;;;;5117449;28;20412;-60
2023/02/02 04:53:49;;;;;;;1.77;0.30;;;7.00;99.90;;;;;;5116717;28;20432;-59
2023/02/02 04:56:18;;;;;;;1.80;0.30;;;7.00;99.90;;;;;;5117423;28;20423;-60
2023/02/02 04:58:46;;;;;;;0.70;0.30;;;7.20;99.90;;;;;;5117191;28;20881;-61
2023/02/02 05:01:17;;;;;;;1.30;0.30;;;7.20;99.90;;;;;;5116773;28;20422;-60
2023/02/02 05:03:45;;;;;;;1.85;0.30;;;7.20;99.90;;;;;;5117301;28;20428;-60
2023/02/02 05:06:12;;;;;;;1.40;0.30;;;7.30;99.90;;;;;;5117401;28;20828;-60
2023/02/02 05:08:42;;;;;;;0.60;0.20;;;7.20;99.90;;;;;;5116884;28;20431;-60
2023/02/02 05:11:10;;;;;;;0.60;0.20;;;7.20;99.90;;;;;;5116561;28;20416;-58
2023/02/02 05:13:37;;;;;;;1.23;0.30;;;7.40;99.90;;;;;;5116789;28;20431;-59
2023/02/02 05:16:05;;;;;;;0.82;0.30;;;7.40;99.90;;;;;;5115695;28;20819;-60
2023/02/02 05:18:33;;;;;;;0.70;0.30;;;7.40;99.90;;;;;;5116029;28;20489;-59
2023/02/02 05:21:00;;;;;;;0.45;0.30;;;7.20;99.90;;;;;;5115979;28;20420;-59
2023/02/02 05:23:27;;;;;;;1.20;0.40;;;7.20;99.90;;;;;;5115495;28;20484;-59
2023/02/02 05:25:55;;;;;;;0.80;0.40;;;7.20;99.90;;;;;;5116243;28;20427;-60
2023/02/02 05:28:23;;;;;;;2.00;0.40;;;7.20;99.90;;;;;;5116699;28;20697;-59
2023/02/02 05:30:50;;;;;;;0.70;0.30;;;7.20;99.90;;;;;;5116582;28;20416;-59
2023/02/02 05:33:18;;;;;;;1.30;0.30;;;7.20;99.90;;;;;;5116516;28;20709;-59
2023/02/02 05:35:47;;;;;;;1.80;0.40;;;7.20;99.90;;;;;;5116453;28;20824;-59
2023/02/02 05:38:15;;;;;;;1.30;0.40;;;7.30;99.90;;;;;;5116380;28;20432;-59
2023/02/02 05:40:42;;;;;;;1.40;0.40;;;7.40;99.90;;;;;;5116421;28;20808;-60
2023/02/02 05:43:09;;;;;;;1.70;0.40;;;7.40;99.90;;;;;;5115464;28;20468;-59
2023/02/02 05:45:36;;;;;;;1.00;0.40;;;7.30;99.90;;;;;;5113238;28;20412;-59
2023/02/02 05:48:04;;;;;;;0.70;0.30;;;7.20;99.90;;;;;;5113668;28;20426;-59
2023/02/02 05:50:31;;;;;;;1.02;0.30;;;7.10;99.90;;;;;;5113976;28;20420;-60
2023/02/02 05:53:00;;;;;;;1.17;0.40;;;7.20;99.90;;;;;;5110962;28;20721;-59
2023/02/02 05:55:27;;;;;;;0.70;0.30;;;7.20;99.90;;;;;;5111784;28;20412;-59
2023/02/02 05:57:54;;;;;;;2.10;0.40;;;7.40;99.90;;;;;;5114427;28;20836;-59
2023/02/02 06:00:22;;;;;;;1.60;0.40;;;7.40;99.90;;;;;;5112959;28;20511;-60
2023/02/02 06:02:49;;;;;;;1.17;0.40;;;7.40;99.90;;;;;;5114319;28;20416;-59
2023/02/02 06:05:16;;;;;;;0.90;0.40;;;7.30;99.90;;;;;;5115044;28;20424;-59
2023/02/02 06:07:44;;;;;;;1.40;0.40;;;7.30;99.90;;;;;;5113723;28;20707;-59
2023/02/02 06:10:12;;;;;;;1.15;0.40;;;7.20;99.90;;;;;;5111768;28;20408;-59
2023/02/02 06:12:39;;;;;;;2.50;0.40;;;7.30;99.90;;;;;;5113131;28;20519;-59
2023/02/02 06:15:08;;;;;;;0.90;0.32;;;7.20;99.90;;;;;;5115097;28;20718;-59
2023/02/02 06:17:35;;;;;;;1.13;0.40;;;7.10;99.90;;;;;;5114950;28;20425;-60
2023/02/02 06:20:02;;;;;;;1.60;0.40;;;7.10;99.90;;;;;;5113395;28;20436;-59
2023/02/02 06:22:31;;;;;;;2.13;0.40;;;7.10;99.90;;;;;;5115611;28;20422;-58
2023/02/02 06:24:58;;;;;;;1.20;0.30;;;7.20;99.90;;;;;;5114194;28;20428;-59
2023/02/02 06:27:26;;;;;;;0.75;0.40;;;7.10;99.90;;;;;;5112565;28;20422;-59
2023/02/02 06:29:53;;;;;;;1.38;0.35;;;7.10;99.90;;;;;;5111732;28;20424;-59
2023/02/02 06:32:20;;;;;;;1.92;0.40;;;7.30;99.90;;;;;;5113200;28;20412;-58
2023/02/02 06:34:48;;;;;;;1.08;0.38;;;7.20;99.90;;;;;;5113389;28;20424;-59
2023/02/02 06:37:15;;;;;;;2.20;0.40;;;7.20;99.90;;;;;;5114282;28;20416;-59
2023/02/02 06:39:42;;;;;;;1.30;0.47;;;7.20;99.90;;;;;;5113978;28;20427;-59
2023/02/02 06:42:09;;;;;;;1.08;0.40;;;7.20;99.90;;;;;;5112242;28;20428;-59
2023/02/02 06:44:37;;;;;;;1.47;0.50;;;7.30;99.90;;;;;;5111844;28;20428;-60
2023/02/02 06:47:04;;;;;;;1.40;0.50;;;7.30;99.90;;;;;;5112193;28;20420;-59
2023/02/02 06:49:31;;;;;;;0.80;0.40;;;7.40;99.90;;;;;;5111144;28;20845;-59
2023/02/02 06:51:59;;;;;;;1.10;0.40;;;7.30;99.90;;;;;;5112319;28;20828;-58
2023/02/02 06:54:26;;;;;;;0.90;0.40;;;7.30;99.90;;;;;;5109768;28;20427;-58
2023/02/02 06:56:54;;;;;;;1.00;0.40;;;7.40;99.90;;;;;;5110204;28;20413;-59
2023/02/02 06:59:21;;;;;;;1.80;0.40;;;7.40;99.90;;;;;;5096362;28;21002;-57
2023/02/02 07:01:50;;;;;;;0.80;0.40;;;7.40;99.90;;;;;;5101776;28;20456;-57
2023/02/02 07:04:17;;;;;;;1.10;0.40;;;7.40;99.90;;;;;;5090819;28;20441;-57
2023/02/02 07:06:45;;;;;;;1.80;0.40;;;7.20;99.90;;;;;;5104568;28;20488;-57
2023/02/02 07:09:12;;;;;;;0.80;0.30;;;7.30;99.90;;;;;;5101572;28;20722;-56
2023/02/02 07:11:39;;;;;;;1.00;0.30;;;7.20;99.90;;;;;;5101532;28;20432;-54
2023/02/02 07:14:07;;;;;;;0.88;0.30;;;7.10;99.90;;;;;;5096111;28;20441;-54
2023/02/02 07:16:34;;;;;;;1.08;0.30;;;7.20;99.90;;;;;;5093530;28;20537;-53
2023/02/02 07:19:02;;;;;;;0.70;0.30;;;7.30;99.90;;;;;;5089764;28;20460;-50
2023/02/02 07:21:34;;;;;;;1.73;0.40;;;7.40;99.90;;;;;;5090949;28;20431;-52
2023/02/02 07:24:01;;;;;;;0.77;0.30;;;7.40;99.90;;;;;;5091088;28;20432;-54
2023/02/02 07:26:29;;;;;;;0.77;0.30;;;7.60;99.90;;;;;;5092044;28;20458;-55
2023/02/02 07:28:56;;;;;;;0.80;0.30;;;7.60;99.90;;;;;;5108796;28;20861;-56
2023/02/02 07:31:25;;;;;;;1.47;0.30;;;7.70;99.90;;;;;;5097056;28;20441;-58
2023/02/02 07:33:54;;;;;;;0.80;0.30;;;7.70;99.90;;;;;;5091833;28;20433;-56
2023/02/02 07:36:24;;;;;;;0.77;0.30;;;7.60;99.90;;;;;;5092853;28;20437;-57
2023/02/02 07:38:53;;;;;;;1.10;0.30;;;7.50;99.90;;;;;;5093888;28;20449;-57
2023/02/02 07:41:21;;;;;;;0.50;0.30;;;7.50;99.90;;;;;;5100506;28;20424;-56
2023/02/02 07:43:49;;;;;;;1.55;0.32;;;7.50;99.90;;;;;;5094076;28;20857;-59
2023/02/02 07:46:17;;;;;;;2.00;0.40;;;7.40;99.90;;;;;;5095123;28;20886;-59
2023/02/02 07:48:44;;;;;;;2.20;0.40;;;7.30;99.90;;;;;;5091189;28;20430;-60
2023/02/02 07:51:14;;;;;;;1.00;0.30;;;7.60;99.90;;;;;;5098595;28;20511;-60
2023/02/02 07:53:45;;;;;;;0.50;0.30;;;7.50;99.90;;;;;;5094832;28;20437;-60
2023/02/02 07:56:13;;;;;;;0.90;0.30;;;7.60;99.90;;;;;;5093495;28;20430;-61
2023/02/02 07:58:41;;;;;;;1.20;0.30;;;7.60;99.90;;;;;;5107381;28;20849;-62
2023/02/02 08:01:10;;;;;;;1.20;0.30;;;7.60;99.90;;;;;;5092984;28;20597;-61
2023/02/02 08:03:37;;;;;;;1.67;0.50;;;7.80;99.90;;;;;;5100155;28;20711;-62
2023/02/02 08:06:11;;;;;;;1.20;0.30;;;7.80;99.90;;;;;;5099213;28;20436;-60
2023/02/02 08:08:38;;;;;;;1.13;0.40;;;8.00;99.90;;;;;;5095856;28;20432;-61
2023/02/02 08:11:09;;;;;;;2.08;0.40;;;8.20;99.90;;;;;;5110818;28;20724;-61
2023/02/02 08:13:37;;;;;;;2.33;0.40;;;8.00;99.90;;;;;;5105647;28;20931;-60
2023/02/02 08:16:04;;;;;;;1.90;0.30;;;8.00;99.90;;;;;;5089396;28;20429;-61
2023/02/02 08:18:32;;;;;;;1.70;0.40;;;8.20;99.90;;;;;;5095849;28;20443;-61
2023/02/02 08:20:59;;;;;;;0.70;0.40;;;8.30;99.90;;;;;;5099724;28;21053;-61
2023/02/02 08:23:27;;;;;;;1.45;0.40;;;8.10;99.90;;;;;;5093096;28;20437;-62
2023/02/02 08:25:54;;;;;;;2.30;0.60;;;7.90;99.90;;;;;;5096953;28;20435;-61
2023/02/02 08:28:23;;;;;;;1.33;0.40;;;8.00;99.90;;;;;;5099598;28;20433;-60
2023/02/02 08:30:50;;;;;;;1.40;0.40;;;8.00;99.90;;;;;;5093872;28;21153;-62
2023/02/02 08:33:17;;;;;;;0.80;0.40;;;8.00;99.90;;;;;;5094715;28;20470;-61
2023/02/02 08:35:46;;;;;;;1.00;0.30;;;8.30;99.90;;;;;;5110017;28;20432;-61
2023/02/02 08:38:13;;;;;;;0.90;0.30;;;8.30;99.90;;;;;;5109567;28;20445;-61
2023/02/02 08:40:40;;;;;;;1.47;0.40;;;8.40;99.90;;;;;;5095239;28;20431;-61
2023/02/02 08:43:07;;;;;;;1.07;0.40;;;8.50;99.90;;;;;;5110778;28;20420;-61
2023/02/02 08:45:35;;;;;;;0.93;0.32;;;8.40;99.90;;;;;;5097301;28;20438;-61
2023/02/02 08:48:03;;;;;;;0.93;0.30;;;8.40;99.90;;;;;;5092935;28;20901;-59
2023/02/02 08:50:30;;;;;;;1.90;0.40;;;8.40;99.90;;;;;;5092018;28;21919;-59
2023/02/02 08:52:57;;;;;;;1.52;0.30;;;8.30;99.90;;;;;;5093488;28;20430;-58
2023/02/02 08:55:24;;;;;;;0.93;0.30;;;8.30;99.90;;;;;;5113083;28;20432;-58
2023/02/02 08:57:51;;;;;;;1.30;0.50;;;8.50;99.90;;;;;;5106400;28;20442;-58
2023/02/02 09:00:19;;;;;;;1.40;0.40;;;8.50;99.90;;;;;;5110519;28;20856;-58
2023/02/02 09:02:50;;;;;;;0.75;0.30;;;8.50;99.90;;;;;;5097075;28;20817;-58
2023/02/02 09:05:17;;;;;;;1.60;0.40;;;8.40;99.90;;;;;;5099570;28;20867;-59
2023/02/02 09:07:44;;;;;;;1.35;0.50;;;8.40;99.90;;;;;;5099118;28;20442;-59
2023/02/02 09:10:11;;;;;;;3.83;0.45;;;8.40;99.90;;;;;;5093122;28;20423;-58
2023/02/02 09:12:38;;;;;;;1.30;0.30;;;8.30;99.90;;;;;;5098969;28;20429;-57
2023/02/02 09:15:10;;;;;;;1.00;0.40;;;8.10;99.90;;;;;;5095664;28;20442;-58
2023/02/02 09:17:38;;;;;;;1.50;0.50;;;8.00;99.90;;;;;;5094516;28;20445;-58
2023/02/02 09:20:07;;;;;;;1.73;0.40;;;7.90;99.90;;;;;;5092610;28;20434;-58
2023/02/02 09:22:34;;;;;;;1.70;0.50;;;7.90;99.90;;;;;;5094526;28;20517;-58
2023/02/02 09:25:01;;;;;;;2.40;0.40;;;8.00;99.90;;;;;;5093659;28;20435;-59
2023/02/02 09:27:28;;;;;;;2.20;0.47;;;8.00;99.90;;;;;;5095237;28;20510;-58
2023/02/02 09:29:55;;;;;;;1.60;0.50;;;8.10;99.90;;;;;;5106138;28;20438;-58
2023/02/02 09:32:22;;;;;;;1.25;0.40;;;8.20;99.90;;;;;;5092074;28;20740;-58
2023/02/02 09:34:49;;;;;;;1.10;0.40;;;8.20;99.90;;;;;;5096867;28;20439;-60
2023/02/02 09:37:18;;;;;;;1.70;0.50;;;8.20;99.90;;;;;;5104393;28;20492;-58
2023/02/02 09:39:45;;;;;;;1.88;0.50;;;8.10;99.90;;;;;;5101915;28;20426;-59
2023/02/02 09:42:39;;;;;;;1.07;0.50;;;8.10;99.90;;;;;;5108932;28;20746;-59
2023/02/02 09:45:12;;;;;;;1.42;0.40;;;8.10;99.90;;;;;;5092668;28;20418;-59
2023/02/02 09:47:54;;;;;;;2.40;0.50;;;8.00;99.90;;;;;;5095733;28;20434;-58
2023/02/02 09:50:44;;;;;;;2.50;0.50;;;7.90;99.90;;;;;;5095156;28;20908;-59
2023/02/02 09:53:19;;;;;;;1.25;0.50;;;8.00;99.90;;;;;;5094884;28;20864;-59
2023/02/02 09:55:49;;;;;;;2.28;0.80;;;8.00;99.90;;;;;;5099308;28;20421;-59
2023/02/02 09:58:20;;;;;;;0.85;0.50;;;8.00;99.90;;;;;;5093551;28;20729;-58
2023/02/02 10:00:55;;;;;;;2.25;0.60;;;7.90;99.90;;;;;;5095951;28;20422;-58
2023/02/02 10:03:28;;;;;;;1.40;0.40;;;8.00;99.90;;;;;;5104215;28;20441;-58
2023/02/02 10:06:01;;;;;;;2.40;0.60;;;7.90;99.90;;;;;;5101033;28;20425;-58
2023/02/02 10:08:35;;;;;;;1.85;0.40;;;7.90;99.90;;;;;;5092152;28;20437;-58
2023/02/02 10:11:10;;;;;;;1.05;0.50;;;8.00;99.90;;;;;;5100845;28;20671;-58
2023/02/02 10:13:42;;;;;;;1.58;0.50;;;7.90;99.90;;;;;;5096099;28;20433;-58
2023/02/02 10:16:16;;;;;;;2.72;0.70;;;7.90;99.90;;;;;;5095724;28;20473;-58
2023/02/02 10:18:50;;;;;;;1.67;0.50;;;8.00;99.90;;;;;;5091781;28;20425;-58
2023/02/02 10:21:26;;;;;;;0.70;0.40;;;8.10;99.90;;;;;;5093275;28;20445;-58
2023/02/02 10:23:56;;;;;;;1.83;0.50;;;8.10;99.90;;;;;;5086447;28;20430;-58
2023/02/02 10:26:33;;;;;;;1.43;0.50;;;8.10;99.90;;;;;;5084016;28;20429;-58
2023/02/02 10:29:13;;;;;;;1.33;0.40;;;8.00;99.90;;;;;;5089898;28;20442;-58
2023/02/02 10:31:49;;;;;;;2.90;0.40;;;8.00;99.90;;;;;;5102045;28;20516;-58
2023/02/02 10:34:23;;;;;;;1.70;0.50;;;8.00;99.90;;;;;;5092627;28;20437;-58
2023/02/02 10:37:13;;;;;;;2.33;0.50;;;8.10;99.90;;;;;;5092542;28;20746;-58
2023/02/02 10:39:55;;;;;;;1.23;0.50;;;8.10;99.90;;;;;;5107037;28;20438;-58
2023/02/02 10:42:31;;;;;;;1.45;0.40;;;8.10;99.90;;;;;;5098694;28;20430;-58
2023/02/02 10:45:02;;;;;;;0.80;0.40;;;8.10;99.90;;;;;;5090008;28;20726;-58
2023/02/02 10:47:32;;;;;;;0.60;0.40;;;8.10;99.90;;;;;;5091156;28;20474;-58
2023/02/02 10:50:10;;;;;;;1.20;0.40;;;8.00;99.90;;;;;;5090674;28;20846;-58
2023/02/02 10:52:38;;;;;;;0.98;0.40;;;7.80;99.90;;;;;;5089236;28;20435;-58
2023/02/02 10:55:18;;;;;;;1.25;0.50;;;7.80;99.90;;;;;;5100528;28;20432;-58
2023/02/02 10:58:02;;;;;;;1.60;0.60;;;7.90;99.90;;;;;;5091805;28;20426;-58
2023/02/02 11:00:35;;;;;;;1.50;0.33;;;8.00;99.90;;;;;;5090113;28;20429;-58
2023/02/02 11:03:05;;;;;;;1.50;0.50;;;8.10;99.90;;;;;;5089887;28;20441;-59
2023/02/02 11:08:20;;;;;;;2.65;0.70;;;8.20;99.90;;;;;;5099391;28;20439;-58
2023/02/02 11:10:54;;;;;;;0.85;0.40;;;8.20;99.90;;;;;;5102443;28;20419;-57
2023/02/02 11:13:28;;;;;;;0.70;0.40;;;8.20;99.90;;;;;;5106726;28;20436;-58
2023/02/02 11:16:21;;;;;;;1.80;0.50;;;8.30;99.90;;;;;;5098763;28;20433;-58
2023/02/02 11:18:49;;;;;;;1.40;0.60;;;8.30;99.90;;;;;;5092560;28;20434;-58
2023/02/02 11:21:19;;;;;;;1.43;0.40;;;8.40;99.90;;;;;;5097117;28;20518;-58
2023/02/02 11:23:55;;;;;;;1.00;0.40;;;8.10;99.90;;;;;;5096018;28;20430;-57
2023/02/02 11:26:25;;;;;;;1.30;0.40;;;8.10;99.90;;;;;;5090710;28;20443;-57
2023/02/02 11:28:55;;;;;;;1.92;0.50;;;8.20;99.90;;;;;;5104259;28;20435;-58
2023/02/02 11:31:40;;;;;;;1.30;0.50;;;8.30;99.90;;;;;;5105789;28;20451;-55
2023/02/02 11:34:20;;;;;;;1.38;0.50;;;8.30;99.90;;;;;;5095152;28;20430;-57
2023/02/02 11:37:11;;;;;;;0.80;0.40;;;8.30;99.90;;;;;;5096433;28;20884;-58
2023/02/02 11:39:39;;;;;;;0.95;0.50;;;8.40;99.90;;;;;;5093149;28;20441;-57
2023/02/02 11:42:16;;;;;;;1.80;0.50;;;8.40;99.90;;;;;;5098084;28;20460;-57
2023/02/02 11:44:47;;;;;;;1.60;0.40;;;8.40;99.90;;;;;;5106737;28;20578;-58
2023/02/02 11:47:24;;;;;;;2.90;0.50;;;8.50;99.90;;;;;;5095421;28;20424;-58
2023/02/02 11:49:53;;;;;;;0.90;0.60;;;8.40;99.90;;;;;;5103109;28;21048;-57
2023/02/02 11:52:22;;;;;;;1.20;0.50;;;8.40;99.90;;;;;;5095755;28;20429;-57
2023/02/02 11:54:51;;;;;;;1.60;0.40;;;8.40;99.90;;;;;;5097044;28;20507;-57
2023/02/02 11:57:23;;;;;;;2.80;0.40;;;8.30;99.90;;;;;;5102990;28;20869;-58
2023/02/02 11:59:52;;;;;;;2.55;0.40;;;8.30;99.90;;;;;;5112131;28;20724;-56
2023/02/02 12:02:31;;;;;;;1.15;0.50;;;8.40;99.90;;;;;;5094134;28;20465;-57
2023/02/02 12:05:31;;;;;;;1.40;0.40;;;8.30;99.90;;;;;;5097398;28;20463;-57
2023/02/02 12:07:59;;;;;;;1.15;0.45;;;8.20;99.90;;;;;;5099378;28;20441;-57
2023/02/02 12:10:31;;;;;;;1.00;0.40;;;8.20;99.90;;;;;;5110007;28;20435;-57
2023/02/02 12:13:07;;;;;;;1.50;0.50;;;8.00;99.90;;;;;;5101882;28;20429;-58
2023/02/02 12:15:46;;;;;;;1.73;0.40;;;8.20;99.90;;;;;;5095927;28;20434;-56
2023/02/02 12:18:40;;;;;;;2.28;0.40;;;8.20;99.90;;;;;;5093396;28;20429;-56
2023/02/02 12:21:12;;;;;;;0.68;0.30;;;8.20;99.90;;;;;;5092569;28;20499;-56
2023/02/02 12:23:53;;;;;;;2.40;0.60;;;8.10;99.90;;;;;;5092005;28;20525;-54
2023/02/02 12:26:26;;;;;;;1.00;0.60;;;8.00;99.90;;;;;;5092878;28;20418;-56
2023/02/02 12:29:10;;;;;;;1.45;0.40;;;7.90;99.90;;;;;;5098384;28;20432;-55
2023/02/02 12:31:49;;;;;;;1.08;0.50;;;7.90;99.90;;;;;;5090231;28;20427;-59
2023/02/02 12:34:24;;;;;;;1.10;0.50;;;8.00;99.90;;;;;;5103480;28;20439;-55
2023/02/02 12:37:03;;;;;;;1.17;0.40;;;7.90;99.90;;;;;;5098202;28;20849;-53
2023/02/02 12:39:39;;;;;;;1.00;0.50;;;7.90;99.90;;;;;;5104389;28;20438;-55
2023/02/02 12:42:19;;;;;;;1.65;0.43;;;7.90;99.90;;;;;;5103705;28;20422;-56
2023/02/02 12:45:08;;;;;;;1.10;0.50;;;7.80;99.90;;;;;;5113572;28;20724;-55
2023/02/02 12:47:46;;;;;;;0.80;0.40;;;7.80;99.90;;;;;;5104818;28;20453;-54
2023/02/02 12:50:28;;;;;;;0.60;0.40;;;7.70;99.90;;;;;;5102265;28;20879;-57
2023/02/02 12:53:12;;;;;;;1.20;0.40;;;7.70;99.90;;;;;;5097188;28;20442;-55
2023/02/02 12:55:44;;;;;;;1.50;0.30;;;7.70;99.90;;;;;;5093690;28;20433;-56
2023/02/02 12:58:22;;;;;;;1.52;0.40;;;7.60;99.90;;;;;;5093146;28;20438;-53
2023/02/02 13:01:14;;;;;;;0.90;0.40;;;7.50;99.90;;;;;;5091912;28;20698;-54
2023/02/02 13:03:58;;;;;;;1.02;0.40;;;7.40;99.90;;;;;;5099118;28;20431;-58
2023/02/02 13:06:55;;;;;;;2.80;0.40;;;7.40;99.90;;;;;;5094677;28;20418;-56
2023/02/02 13:09:28;;;;;;;1.20;0.40;;;7.40;99.90;;;;;;5098507;28;20438;-56
2023/02/02 13:12:02;;;;;;;0.88;0.40;;;7.30;99.90;;;;;;5093996;28;20426;-57
2023/02/02 13:14:32;;;;;;;1.35;0.40;;;7.30;99.90;;;;;;5094843;28;20809;-56
2023/02/02 13:17:07;;;;;;;1.60;0.50;;;7.30;99.90;;;;;;5095376;28;20449;-57
2023/02/02 13:19:38;;;;;;;1.73;0.50;;;7.30;99.90;;;;;;5102405;28;20433;-58
2023/02/02 13:22:11;;;;;;;1.60;0.60;;;7.20;99.90;;;;;;5097924;28;20424;-57
2023/02/02 13:24:41;;;;;;;0.90;0.50;;;7.30;99.90;;;;;;5110999;28;20930;-54
2023/02/02 13:27:15;;;;;;;1.70;0.68;;;7.30;99.90;;;;;;5106365;28;20770;-55
2023/02/02 13:29:47;;;;;;;4.20;0.60;;;7.30;99.90;;;;;;5092819;28;20428;-57
2023/02/02 13:32:25;;;;;;;0.73;0.40;;;7.30;99.90;;;;;;5092338;28;20414;-56
2023/02/02 13:34:59;;;;;;;2.50;0.50;;;7.30;99.90;;;;;;5091366;28;20432;-57